Time;durP1;ratioP1;P1;durP2;ratioP2;P2;SDS_P1;SDS_P2;PMS_P1;PMS_P2;Temp;Humidity;BMP_temperature;BMP_pressure;BME280_temperature;BME280_humidity;BME280_pressure;Samples;Min_cycle;Max_cycle;Signal;HPM_P1;HPM_P2
2021/01/08 00:01:02;;;;;;;12.03;7.25;;;;;;;4.81;90.61;100896.59;1750176;82;21049;-56
2021/01/08 00:03:29;;;;;;;11.22;6.80;;;;;;;4.78;90.48;100893.96;1750139;82;21133;-57
2021/01/08 00:05:57;;;;;;;10.48;6.03;;;;;;;4.74;90.27;100896.18;1750149;81;21370;-57
2021/01/08 00:08:25;;;;;;;13.40;6.20;;;;;;;4.71;90.15;100895.78;1750089;81;21081;-57
2021/01/08 00:10:53;;;;;;;9.73;5.85;;;;;;;4.68;89.97;100900.23;1750135;81;21073;-56
2021/01/08 00:13:20;;;;;;;10.32;5.60;;;;;;;4.67;89.85;100901.13;1750132;82;21097;-56
2021/01/08 00:15:48;;;;;;;10.23;5.83;;;;;;;4.66;89.65;100904.67;1749995;81;21133;-57
2021/01/08 00:18:15;;;;;;;10.30;6.10;;;;;;;4.64;89.49;100894.08;1750157;82;21376;-57
2021/01/08 00:20:44;;;;;;;10.80;6.03;;;;;;;4.63;89.36;100888.77;1750147;82;21522;-56
2021/01/08 00:23:12;;;;;;;9.63;5.83;;;;;;;4.64;89.13;100895.84;1750217;82;21042;-56
2021/01/08 00:25:40;;;;;;;12.65;6.83;;;;;;;4.65;88.99;100904.23;1750087;82;21113;-56
2021/01/08 00:28:08;;;;;;;9.48;5.85;;;;;;;4.65;88.86;100897.60;1750160;82;21165;-56
2021/01/08 00:30:36;;;;;;;11.55;6.30;;;;;;;4.66;88.66;100896.70;1750018;82;21694;-56
2021/01/08 00:33:04;;;;;;;10.20;6.03;;;;;;;4.65;88.47;100889.62;1750148;82;21125;-56
2021/01/08 00:35:31;;;;;;;10.82;6.15;;;;;;;4.64;88.32;100895.41;1750034;82;21014;-57
2021/01/08 00:37:59;;;;;;;9.60;5.87;;;;;;;4.63;88.18;100884.31;1771140;80;21094;-57
2021/01/08 00:40:26;;;;;;;10.00;6.08;;;;;;;4.63;88.04;100890.09;1781048;80;21129;-57
2021/01/08 00:42:54;;;;;;;8.43;5.20;;;;;;;4.64;87.93;100887.87;1781020;80;21707;-57
2021/01/08 00:45:22;;;;;;;8.88;5.70;;;;;;;4.65;87.85;100885.65;1781004;80;21077;-57
2021/01/08 00:47:49;;;;;;;10.13;6.12;;;;;;;4.66;87.80;100880.34;1781034;80;21121;-57
2021/01/08 00:50:18;;;;;;;9.30;6.12;;;;;;;4.68;87.69;100890.93;1780980;80;21121;-57
2021/01/08 00:52:46;;;;;;;11.65;7.20;;;;;;;4.67;87.58;100887.84;1781004;80;21145;-57
2021/01/08 00:55:14;;;;;;;9.80;6.22;;;;;;;4.67;87.53;100891.39;1781012;80;21208;-57
2021/01/08 00:57:43;;;;;;;8.73;5.85;;;;;;;4.68;87.39;100893.16;1780632;80;21081;-57
2021/01/08 01:00:14;;;;;;;10.88;5.72;;;;;;;4.71;87.30;100901.52;1781083;80;21081;-56
2021/01/08 01:02:43;;;;;;;9.08;6.10;;;;;;;4.73;87.12;100895.32;1780840;80;21069;-57
2021/01/08 01:05:11;;;;;;;8.85;5.70;;;;;;;4.75;86.89;100897.94;1781206;80;21184;-57
2021/01/08 01:07:39;;;;;;;12.00;6.50;;;;;;;4.76;86.75;100913.02;1781067;80;21701;-57
2021/01/08 01:10:08;;;;;;;9.65;6.17;;;;;;;4.77;86.58;100912.55;1781000;80;21117;-57
2021/01/08 01:12:36;;;;;;;10.85;6.20;;;;;;;4.79;86.38;100918.73;1780977;80;21144;-56
2021/01/08 01:15:06;;;;;;;10.50;5.95;;;;;;;4.79;86.12;100919.63;1780876;80;21179;-57
2021/01/08 01:17:41;;;;;;;9.70;5.60;;;;;;;4.83;85.79;100927.10;1781042;79;21065;-56
2021/01/08 01:20:13;;;;;;;8.50;5.37;;;;;;;4.85;85.53;100924.88;1781110;80;21359;-57
2021/01/08 01:22:44;;;;;;;7.30;4.83;;;;;;;4.90;85.17;100927.94;1780961;80;21169;-57
2021/01/08 01:25:13;;;;;;;10.10;5.35;;;;;;;4.92;84.84;100919.51;1781014;80;21010;-57
2021/01/08 01:27:40;;;;;;;9.10;5.50;;;;;;;4.94;84.58;100913.73;1781120;80;21093;-56
2021/01/08 01:30:10;;;;;;;11.10;4.78;;;;;;;4.95;84.33;100912.40;1780941;80;21129;-56
2021/01/08 01:32:37;;;;;;;9.55;5.00;;;;;;;4.98;84.10;100919.48;1781006;80;21194;-57
2021/01/08 01:35:07;;;;;;;7.37;4.92;;;;;;;5.00;83.84;100912.37;1780911;80;21058;-56
2021/01/08 01:37:34;;;;;;;8.05;5.08;;;;;;;5.05;83.63;100912.30;1778804;80;21075;-58
2021/01/08 01:40:02;;;;;;;6.83;4.58;;;;;;;5.07;83.27;100919.38;1756701;81;21074;-57
2021/01/08 01:42:30;;;;;;;6.92;4.70;;;;;;;5.07;82.96;100916.72;1776909;80;21123;-57
2021/01/08 01:44:57;;;;;;;7.08;4.62;;;;;;;5.10;82.78;100919.34;1776836;80;21358;-57
2021/01/08 01:47:27;;;;;;;7.30;4.70;;;;;;;5.11;82.57;100921.11;1756673;81;21086;-57
2021/01/08 01:49:55;;;;;;;7.58;4.62;;;;;;;5.11;82.31;100918.44;1746574;80;21083;-57
2021/01/08 01:52:22;;;;;;;7.87;4.80;;;;;;;5.11;82.14;100925.09;1776823;79;21083;-57
2021/01/08 01:54:50;;;;;;;7.37;4.97;;;;;;;5.13;82.04;100924.63;1756763;81;21109;-57
2021/01/08 01:57:17;;;;;;;9.73;4.95;;;;;;;5.16;81.79;100924.59;1770786;80;21394;-57
2021/01/08 01:59:45;;;;;;;8.15;4.78;;;;;;;5.18;81.66;100924.59;1756737;81;21057;-57
2021/01/08 02:02:21;;;;;;;9.38;4.90;;;;;;;5.18;81.42;100929.01;1776833;80;21055;-57
2021/01/08 02:04:51;;;;;;;8.48;5.15;;;;;;;5.18;81.29;100938.31;1756741;81;21063;-56
2021/01/08 02:07:19;;;;;;;7.00;4.67;;;;;;;5.17;81.12;100940.11;1776813;80;21167;-57
2021/01/08 02:09:47;;;;;;;6.55;4.62;;;;;;;5.16;81.05;100936.55;1756667;81;21300;-56
2021/01/08 02:12:15;;;;;;;6.78;4.53;;;;;;;5.16;80.97;100944.53;1776803;80;21075;-57
2021/01/08 02:14:44;;;;;;;7.03;4.75;;;;;;;5.17;80.74;100952.07;1746914;80;21067;-56
2021/01/08 02:17:14;;;;;;;8.50;5.03;;;;;;;5.14;80.56;100950.77;1758892;81;21050;-57
2021/01/08 02:20:03;;;;;;;6.67;4.92;;;;;;;5.13;80.57;100959.17;1793805;80;21479;-57
2021/01/08 02:22:42;;;;;;;8.48;4.90;;;;;;;5.13;80.55;100955.66;1762424;81;21231;-56
2021/01/08 02:25:18;;;;;;;7.78;4.67;;;;;;;5.09;80.38;100960.11;1793632;80;21122;-56
2021/01/08 02:28:16;;;;;;;10.60;5.12;;;;;;;5.06;80.34;100965.45;1754236;81;21182;-56
2021/01/08 02:30:44;;;;;;;9.18;5.30;;;;;;;5.02;80.35;100955.28;1773760;80;21055;-56
2021/01/08 02:33:12;;;;;;;9.23;5.22;;;;;;;5.01;80.34;100954.86;1734898;81;21045;-56
2021/01/08 02:35:40;;;;;;;8.33;4.97;;;;;;;5.01;80.28;100945.55;1773774;80;21323;-57
2021/01/08 02:38:11;;;;;;;8.48;4.62;;;;;;;5.01;80.19;100946.02;1763532;81;21585;-57
2021/01/08 02:40:38;;;;;;;9.28;5.20;;;;;;;5.02;80.19;100953.09;1746855;81;21125;-57
2021/01/08 02:43:06;;;;;;;9.05;5.42;;;;;;;5.03;80.10;100954.86;1763898;81;21201;-55
2021/01/08 02:45:35;;;;;;;10.38;5.28;;;;;;;5.01;80.01;100952.66;1764043;81;21066;-56
2021/01/08 02:48:03;;;;;;;9.68;5.00;;;;;;;5.00;80.07;100962.86;1763967;81;21202;-56
2021/01/08 02:50:32;;;;;;;8.43;5.17;;;;;;;4.99;79.95;100967.73;1764171;81;21708;-57
2021/01/08 02:53:04;;;;;;;6.85;4.65;;;;;;;4.97;79.98;100973.48;1764034;81;21169;-57
2021/01/08 02:55:32;;;;;;;6.83;4.55;;;;;;;4.95;80.06;100976.17;1763980;81;21145;-57
2021/01/08 02:58:00;;;;;;;7.50;4.55;;;;;;;4.94;80.19;100976.17;1764023;81;21110;-57
2021/01/08 03:00:29;;;;;;;8.48;5.10;;;;;;;4.92;80.25;100972.65;1763937;81;21329;-56
2021/01/08 03:02:57;;;;;;;8.63;5.50;;;;;;;4.92;80.35;100973.55;1763936;81;21181;-56
2021/01/08 03:05:27;;;;;;;9.53;5.62;;;;;;;4.90;80.42;100969.13;1746703;81;21066;-57
2021/01/08 03:07:55;;;;;;;10.55;5.83;;;;;;;4.87;80.51;100976.23;1763964;81;21059;-56
2021/01/08 03:10:24;;;;;;;9.23;5.67;;;;;;;4.85;80.64;100975.36;1746832;81;21042;-56
2021/01/08 03:13:02;;;;;;;9.48;5.40;;;;;;;4.82;80.70;100976.72;1764041;80;21264;-56
2021/01/08 03:15:31;;;;;;;8.40;5.20;;;;;;;4.80;80.77;100977.18;1763816;81;21086;-57
2021/01/08 03:17:59;;;;;;;9.23;5.40;;;;;;;4.79;80.99;100972.77;1763894;81;21110;-56
2021/01/08 03:20:26;;;;;;;11.85;5.33;;;;;;;4.81;81.04;100972.30;1763863;80;21157;-56
2021/01/08 03:22:54;;;;;;;9.98;5.50;;;;;;;4.81;80.94;100967.42;1764034;81;21058;-56
2021/01/08 03:25:22;;;;;;;7.60;4.70;;;;;;;4.79;80.87;100964.80;1763925;81;21433;-56
2021/01/08 03:27:49;;;;;;;9.25;5.28;;;;;;;4.76;80.78;100959.51;1763914;80;21141;-55
2021/01/08 03:30:19;;;;;;;7.10;4.65;;;;;;;4.75;80.66;100968.34;1764026;81;21097;-56
2021/01/08 03:32:46;;;;;;;8.20;5.28;;;;;;;4.73;80.70;100967.47;1764034;81;21173;-56
2021/01/08 03:35:14;;;;;;;8.70;4.25;;;;;;;4.73;80.56;100969.70;1786709;80;21089;-56
2021/01/08 03:37:42;;;;;;;7.65;4.40;;;;;;;4.73;80.55;100970.13;1769348;80;22633;-56
2021/01/08 03:40:12;;;;;;;8.93;4.60;;;;;;;4.74;80.35;100967.91;1755592;81;21113;-56
2021/01/08 03:42:39;;;;;;;6.92;4.20;;;;;;;4.74;80.30;100966.58;1755560;81;21093;-56
2021/01/08 03:45:09;;;;;;;7.55;4.50;;;;;;;4.76;80.26;100973.22;1755694;81;21149;-57
2021/01/08 03:47:36;;;;;;;17.02;7.37;;;;;;;4.75;80.04;100965.68;1755671;81;21148;-56
2021/01/08 03:50:05;;;;;;;5.92;3.98;;;;;;;4.74;79.90;100966.58;1755631;81;21541;-57
2021/01/08 03:52:33;;;;;;;6.85;4.15;;;;;;;4.73;79.85;100963.48;1755566;81;21117;-57
2021/01/08 03:55:00;;;;;;;6.10;4.33;;;;;;;4.72;79.79;100961.72;1755624;81;21133;-57
2021/01/08 03:57:28;;;;;;;6.85;4.20;;;;;;;4.72;79.80;100963.05;1755528;81;21116;-57
2021/01/08 03:59:55;;;;;;;7.33;4.50;;;;;;;4.73;79.85;100968.80;1755605;81;21030;-57
2021/01/08 04:02:23;;;;;;;6.78;4.15;;;;;;;4.77;79.89;100974.55;1755679;81;21743;-57
2021/01/08 04:04:51;;;;;;;5.83;3.70;;;;;;;4.81;79.94;100973.63;1755512;81;21062;-57
2021/01/08 04:07:19;;;;;;;6.92;4.10;;;;;;;4.85;79.87;100974.47;1755622;81;21097;-57
2021/01/08 04:09:47;;;;;;;6.03;4.07;;;;;;;4.88;79.86;100980.65;1755527;81;21109;-57
2021/01/08 04:12:14;;;;;;;6.53;4.17;;;;;;;4.91;79.75;100982.84;1755660;81;21025;-57
2021/01/08 04:14:42;;;;;;;7.67;4.92;;;;;;;4.92;79.60;100981.95;1755555;81;21545;-57
2021/01/08 04:17:09;;;;;;;9.15;4.92;;;;;;;4.94;79.44;100985.47;1753179;81;21101;-57
2021/01/08 04:19:39;;;;;;;7.60;4.50;;;;;;;4.95;79.44;100988.12;1734249;82;21177;-56
2021/01/08 04:22:07;;;;;;;8.53;4.92;;;;;;;4.98;79.42;100997.41;1734498;82;21137;-56
2021/01/08 04:24:35;;;;;;;6.85;4.78;;;;;;;5.01;79.47;100992.06;1734475;82;21069;-56
2021/01/08 04:27:03;;;;;;;9.15;5.30;;;;;;;5.06;79.46;100998.67;1734554;82;21384;-56
2021/01/08 04:29:30;;;;;;;7.35;4.72;;;;;;;5.09;79.35;101003.96;1734373;82;21137;-57
2021/01/08 04:31:58;;;;;;;10.03;5.83;;;;;;;5.10;79.31;101001.73;1734528;82;21109;-57
2021/01/08 04:34:26;;;;;;;7.05;4.80;;;;;;;5.10;79.33;101001.73;1734459;82;21061;-56
2021/01/08 04:36:53;;;;;;;9.40;5.10;;;;;;;5.12;79.26;101005.72;1744136;80;21046;-56
2021/01/08 04:39:21;;;;;;;7.83;4.90;;;;;;;5.11;79.15;101006.63;1754922;81;21196;-57
2021/01/08 04:41:48;;;;;;;8.15;5.30;;;;;;;5.12;79.15;101012.38;1771358;81;21119;-56
2021/01/08 04:44:16;;;;;;;8.88;5.40;;;;;;;5.14;79.04;101008.78;1755006;81;21487;-57
2021/01/08 04:46:43;;;;;;;9.15;5.72;;;;;;;5.15;78.99;101005.23;1771415;80;21056;-56
2021/01/08 04:49:11;;;;;;;9.08;5.90;;;;;;;5.17;78.89;101009.22;1693941;81;21169;-56
2021/01/08 04:51:39;;;;;;;10.53;6.08;;;;;;;5.20;78.80;101008.33;1719316;81;21580;-56
2021/01/08 04:54:07;;;;;;;10.30;6.05;;;;;;;5.21;78.65;101008.75;1693669;81;21137;-56
2021/01/08 04:56:44;;;;;;;8.43;5.78;;;;;;;5.22;78.57;101015.83;1770952;81;21174;-56
2021/01/08 04:59:12;;;;;;;9.75;6.22;;;;;;;5.21;78.50;101009.63;1754744;81;21078;-56
2021/01/08 05:01:39;;;;;;;13.83;6.53;;;;;;;5.20;78.42;101008.33;1771174;81;21131;-56
2021/01/08 05:04:07;;;;;;;7.92;4.92;;;;;;;5.21;78.56;101010.09;1754754;81;21363;-56
2021/01/08 05:06:35;;;;;;;10.10;5.03;;;;;;;5.22;78.51;101010.52;1771313;81;21092;-56
2021/01/08 05:09:03;;;;;;;11.45;6.25;;;;;;;5.20;77.77;101000.34;1725727;81;21473;-56
2021/01/08 05:11:31;;;;;;;11.22;6.30;;;;;;;5.14;77.24;100986.66;1771448;81;21039;-57
2021/01/08 05:14:04;;;;;;;9.18;6.00;;;;;;;5.11;77.42;100995.52;1754803;81;21117;-57
2021/01/08 05:16:32;;;;;;;12.05;6.53;;;;;;;5.11;77.38;100989.34;1771208;81;21279;-57
2021/01/08 05:19:02;;;;;;;9.53;5.90;;;;;;;5.06;77.36;100996.02;1758898;81;21176;-57
2021/01/08 05:21:30;;;;;;;10.80;6.25;;;;;;;5.02;77.32;100987.17;1774736;80;21131;-57
2021/01/08 05:24:01;;;;;;;11.15;5.22;;;;;;;4.96;77.05;100984.58;1760449;81;21093;-56
2021/01/08 05:26:29;;;;;;;11.35;5.92;;;;;;;4.94;77.00;100977.50;1774143;80;21154;-57
2021/01/08 05:29:01;;;;;;;11.55;5.65;;;;;;;4.93;76.82;100986.36;1760565;81;21597;-57
2021/01/08 05:31:30;;;;;;;9.05;5.78;;;;;;;4.92;76.67;100981.95;1774724;80;21547;-56
2021/01/08 05:33:58;;;;;;;12.90;6.40;;;;;;;4.88;76.74;100993.93;1760544;81;21097;-56
2021/01/08 05:36:26;;;;;;;9.93;6.10;;;;;;;4.84;76.95;100989.54;1774888;80;21462;-56
2021/01/08 05:38:57;;;;;;;10.78;6.15;;;;;;;4.79;76.98;100990.03;1795539;79;21027;-57
2021/01/08 05:41:30;;;;;;;14.40;6.83;;;;;;;4.76;76.84;100988.73;1795353;80;21246;-57
2021/01/08 05:43:59;;;;;;;12.07;6.30;;;;;;;4.73;76.92;100994.03;1795438;80;21101;-57
2021/01/08 05:46:31;;;;;;;16.45;6.58;;;;;;;4.73;77.05;100995.36;1795472;80;21587;-57
2021/01/08 05:49:06;;;;;;;12.55;6.60;;;;;;;4.71;77.19;100991.41;1795500;80;21210;-56
2021/01/08 05:51:38;;;;;;;12.15;6.72;;;;;;;4.71;77.32;100987.85;1777799;80;21107;-57
2021/01/08 05:54:06;;;;;;;12.53;6.87;;;;;;;4.71;77.48;100986.52;1795466;80;21363;-56
2021/01/08 05:56:37;;;;;;;15.78;7.25;;;;;;;4.72;77.45;100989.61;1795318;79;21055;-57
2021/01/08 05:59:07;;;;;;;14.10;6.50;;;;;;;4.72;77.57;100997.16;1795435;80;21071;-57
2021/01/08 06:01:36;;;;;;;14.70;8.05;;;;;;;4.74;77.66;101013.06;1795458;79;21161;-57
2021/01/08 06:04:06;;;;;;;12.93;6.90;;;;;;;4.76;77.70;101011.30;1795579;80;21174;-57
2021/01/08 06:06:40;;;;;;;15.00;7.50;;;;;;;4.77;77.81;101017.05;1795535;79;22182;-57
2021/01/08 06:09:13;;;;;;;15.88;8.05;;;;;;;4.76;77.98;100999.78;1795412;80;21528;-57
2021/01/08 06:11:43;;;;;;;17.37;8.58;;;;;;;4.77;78.10;100993.14;1795551;80;21558;-57
2021/01/08 06:14:12;;;;;;;16.57;8.50;;;;;;;4.75;78.23;100994.90;1795371;80;21511;-57
2021/01/08 06:16:48;;;;;;;17.57;8.90;;;;;;;4.75;78.61;100989.59;1751472;80;21125;-57
2021/01/08 06:19:16;;;;;;;17.80;9.53;;;;;;;4.72;79.04;100994.92;1795306;80;21317;-57
2021/01/08 06:21:45;;;;;;;16.52;8.50;;;;;;;4.65;79.28;100989.23;1795326;80;21156;-57
2021/01/08 06:24:25;;;;;;;15.30;9.00;;;;;;;4.61;79.83;100988.82;1795360;80;21475;-56
2021/01/08 06:26:53;;;;;;;19.87;9.63;;;;;;;4.56;80.03;100979.12;1793313;79;21134;-58
2021/01/08 06:29:22;;;;;;;14.90;8.25;;;;;;;4.57;80.29;100978.66;1795472;80;21106;-56
2021/01/08 06:31:54;;;;;;;20.05;9.30;;;;;;;4.56;80.44;100973.80;1795329;80;21187;-56
2021/01/08 06:34:26;;;;;;;22.22;10.18;;;;;;;4.55;80.56;100970.72;1795363;80;21078;-56
2021/01/08 06:37:09;;;;;;;15.55;8.75;;;;;;;4.54;80.62;100970.28;1787358;80;21071;-57
2021/01/08 06:39:45;;;;;;;15.75;8.35;;;;;;;4.56;80.67;100973.80;1760626;81;21593;-57
2021/01/08 06:42:22;;;;;;;;;;;;;;;4.56;80.71;100983.09;1777235;80;21036;-56
2021/01/08 06:44:49;;;;;;;14.20;8.33;;;;;;;4.55;80.69;100990.63;1774224;80;21345;-56
2021/01/08 06:47:17;;;;;;;17.67;9.58;;;;;;;4.54;80.62;100989.30;1760480;81;21184;-56
2021/01/08 06:49:45;;;;;;;15.38;9.03;;;;;;;4.58;80.67;100987.05;1774567;80;21067;-56
2021/01/08 06:52:16;;;;;;;15.58;9.08;;;;;;;4.63;80.64;100989.69;1760433;81;21046;-57
2021/01/08 06:54:44;;;;;;;16.40;9.70;;;;;;;4.67;80.49;100992.33;1774594;80;21072;-57
2021/01/08 06:57:17;;;;;;;21.57;10.23;;;;;;;4.72;80.34;100991.84;1760511;81;22330;-57
2021/01/08 06:59:56;;;;;;;17.10;9.65;;;;;;;4.77;80.23;100992.25;1774525;80;21178;-57
2021/01/08 07:02:25;;;;;;;28.12;11.12;;;;;;;4.79;80.18;100995.34;1752347;81;21065;-58
2021/01/08 07:04:54;;;;;;;27.42;11.45;;;;;;;4.78;80.29;100994.91;1774535;80;21063;-56
2021/01/08 07:07:24;;;;;;;28.57;11.08;;;;;;;4.80;80.41;100999.77;1760451;81;21069;-57
2021/01/08 07:09:55;;;;;;;21.70;10.95;;;;;;;4.84;80.43;100996.18;1774709;80;21206;-57
2021/01/08 07:12:25;;;;;;;18.55;10.60;;;;;;;4.87;80.53;100994.83;1732820;81;21117;-57
2021/01/08 07:14:52;;;;;;;21.50;11.83;;;;;;;4.93;80.54;101003.64;1774708;80;21123;-56
2021/01/08 07:17:30;;;;;;;24.87;11.08;;;;;;;4.96;80.62;101003.18;1760348;81;21144;-56
2021/01/08 07:20:00;;;;;;;33.45;12.70;;;;;;;5.06;80.69;101005.32;1774550;80;21119;-56
2021/01/08 07:22:36;;;;;;;21.77;11.93;;;;;;;5.12;80.60;100999.95;1760425;81;21388;-58
2021/01/08 07:25:12;;;;;;;21.40;12.53;;;;;;;5.16;80.59;101005.66;1774557;80;21083;-57
2021/01/08 07:27:43;;;;;;;29.32;12.13;;;;;;;5.22;80.72;101015.38;1760357;81;21162;-57
2021/01/08 07:30:13;;;;;;;20.82;11.28;;;;;;;5.26;80.84;101021.09;1774680;80;21509;-56
2021/01/08 07:32:49;;;;;;;19.92;11.53;;;;;;;5.29;80.83;101022.39;1760474;81;21137;-57
2021/01/08 07:35:25;;;;;;;22.65;11.70;;;;;;;5.35;80.98;101029.90;1774671;80;22320;-56
2021/01/08 07:38:06;;;;;;;20.52;11.95;;;;;;;5.42;80.96;101025.84;1762660;81;21197;-57
2021/01/08 07:40:52;;;;;;;19.55;10.90;;;;;;;5.51;80.99;101017.34;1763942;81;21058;-57
2021/01/08 07:43:20;;;;;;;19.17;10.28;;;;;;;5.57;80.98;101015.94;1763964;81;21997;-57
2021/01/08 07:45:54;;;;;;;21.87;10.60;;;;;;;5.61;81.06;101021.66;1689963;81;21145;-57
2021/01/08 07:48:27;;;;;;;21.60;11.33;;;;;;;5.63;81.15;101014.53;1764063;81;21580;-57
2021/01/08 07:51:13;;;;;;;19.25;10.70;;;;;;;5.67;81.32;101004.75;1763914;81;20963;-57
2021/01/08 07:53:44;;;;;;;22.40;11.22;;;;;;;5.68;81.25;101002.09;1763937;81;21145;-57
2021/01/08 07:56:25;;;;;;;26.90;11.85;;;;;;;5.72;81.35;101006.48;1786756;80;21470;-57
2021/01/08 07:58:59;;;;;;;22.10;11.73;;;;;;;5.75;81.54;101004.25;1786891;80;21188;-57
2021/01/08 08:01:33;;;;;;;22.82;11.97;;;;;;;5.84;81.83;101004.56;1786914;80;21201;-57
2021/01/08 08:04:04;;;;;;;;;;;;;;;5.84;81.83;101004.56;1789520;80;21070;-57
2021/01/08 08:06:33;;;;;;;27.93;11.88;;;;;;;5.87;81.82;101012.08;1786934;80;20231;-57
2021/01/08 08:09:06;;;;;;;32.85;12.37;;;;;;;5.88;82.05;101011.64;1786937;80;22104;-57
2021/01/08 08:11:36;;;;;;;20.95;11.73;;;;;;;5.88;82.05;101016.96;1786903;79;21042;-57
2021/01/08 08:14:09;;;;;;;26.77;11.93;;;;;;;5.93;82.39;101016.89;1786918;80;21190;-56
2021/01/08 08:16:39;;;;;;;23.30;11.48;;;;;;;5.99;82.53;101011.05;1786751;80;21081;-57
2021/01/08 08:19:09;;;;;;;27.37;11.83;;;;;;;6.06;82.67;101003.02;1791143;79;21168;-57
2021/01/08 08:21:38;;;;;;;22.02;10.95;;;;;;;6.14;82.83;101005.16;1798642;79;21460;-57
2021/01/08 08:24:06;;;;;;;18.17;9.53;;;;;;;6.17;83.19;101006.44;1798698;79;21465;-57
2021/01/08 08:26:34;;;;;;;15.88;9.18;;;;;;;6.22;83.47;100992.61;1782895;79;21187;-57
2021/01/08 08:29:07;;;;;;;20.57;10.18;;;;;;;6.27;83.42;101001.41;1798684;79;21558;-57
2021/01/08 08:31:42;;;;;;;24.55;12.30;;;;;;;6.42;83.58;101007.45;1798553;79;21055;-57
2021/01/08 08:34:10;;;;;;;19.42;11.10;;;;;;;6.42;83.58;101007.45;1798745;79;21106;-57
2021/01/08 08:36:38;;;;;;;23.73;12.93;;;;;;;6.49;83.67;100995.80;1794317;79;21125;-57
2021/01/08 08:39:15;;;;;;;23.18;11.83;;;;;;;6.55;83.61;101003.73;1763597;81;21674;-57
2021/01/08 08:41:48;;;;;;;28.87;12.33;;;;;;;6.59;83.66;100996.55;1775284;80;21087;-57
2021/01/08 08:44:18;;;;;;;18.53;10.70;;;;;;;6.63;83.55;100994.73;1763741;81;21452;-57
2021/01/08 08:46:51;;;;;;;17.32;9.58;;;;;;;6.65;83.49;100992.48;1775270;80;21043;-57
2021/01/08 08:49:33;;;;;;;14.97;9.40;;;;;;;6.68;83.52;101003.53;1763763;81;21117;-57
2021/01/08 08:52:01;;;;;;;18.27;9.48;;;;;;;6.70;83.65;101000.39;1775284;80;21208;-57
2021/01/08 08:54:28;;;;;;;16.93;9.10;;;;;;;6.73;83.81;100996.34;1763460;81;21160;-56
2021/01/08 08:56:59;;;;;;;15.75;9.03;;;;;;;6.74;83.83;100992.34;1775253;80;21051;-57
2021/01/08 08:59:44;;;;;;;15.67;9.33;;;;;;;6.76;83.75;100996.32;1763577;81;21177;-57
2021/01/08 09:02:26;;;;;;;18.98;9.43;;;;;;;6.77;83.94;101002.08;1775381;80;21040;-57
2021/01/08 09:04:59;;;;;;;12.58;7.72;;;;;;;6.81;84.16;101000.22;1763555;81;21208;-58
2021/01/08 09:07:45;;;;;;;12.73;8.00;;;;;;;6.83;84.43;100989.98;1775280;80;21063;-57
2021/01/08 09:10:28;;;;;;;13.53;7.62;;;;;;;6.86;84.79;100981.94;1762988;81;21057;-57
2021/01/08 09:13:15;;;;;;;12.53;7.35;;;;;;;6.89;84.97;100975.69;1748485;80;21100;-57
2021/01/08 09:15:51;;;;;;;15.35;7.20;;;;;;;6.88;84.85;100976.13;1763533;81;21037;-57
2021/01/08 09:18:41;;;;;;;15.35;8.00;;;;;;;6.89;84.98;100977.02;1775338;80;21407;-57
2021/01/08 09:21:30;;;;;;;12.93;7.08;;;;;;;6.94;85.01;100976.48;1763495;81;21459;-57
2021/01/08 09:24:02;;;;;;;11.70;6.85;;;;;;;6.93;85.08;100972.06;1775290;80;21171;-57
2021/01/08 09:26:30;;;;;;;13.55;7.37;;;;;;;6.92;85.26;100971.63;1763521;81;21129;-57
2021/01/08 09:28:58;;;;;;;14.50;7.97;;;;;;;6.93;85.38;100970.73;1775320;80;21131;-57
2021/01/08 09:31:43;;;;;;;14.30;8.30;;;;;;;6.93;85.46;100972.50;1763567;81;21269;-57
2021/01/08 09:34:12;;;;;;;19.90;9.28;;;;;;;6.94;85.82;100975.59;1775334;80;21500;-57
2021/01/08 09:36:39;;;;;;;14.65;7.53;;;;;;;7.01;86.29;100971.94;1763868;81;21173;-57
2021/01/08 09:39:09;;;;;;;16.60;7.72;;;;;;;7.06;86.11;100966.07;1767074;80;21207;-58
2021/01/08 09:41:38;;;;;;;18.05;8.25;;;;;;;7.02;85.52;100965.70;1767164;81;21558;-57
2021/01/08 09:44:11;;;;;;;15.80;7.80;;;;;;;6.97;85.63;100956.91;1767089;81;22352;-57
2021/01/08 09:46:57;;;;;;;13.35;7.22;;;;;;;7.00;86.36;100952.85;1767020;81;21126;-57
2021/01/08 09:49:25;;;;;;;8.03;4.80;;;;;;;7.17;86.38;100940.55;1767001;80;21068;-57
2021/01/08 09:52:01;;;;;;;8.60;4.70;;;;;;;7.17;86.38;100940.55;1767042;81;21062;-57
2021/01/08 09:54:49;;;;;;;9.78;5.35;;;;;;;7.20;85.52;100939.16;1767022;81;21138;-57
2021/01/08 09:57:29;;;;;;;9.68;5.00;;;;;;;7.26;85.65;100936.38;1767015;81;21586;-57
2021/01/08 10:00:06;;;;;;;7.90;5.17;;;;;;;7.36;85.61;100934.89;1766991;81;21161;-57
2021/01/08 10:02:43;;;;;;;10.70;5.47;;;;;;;7.43;85.38;100925.41;1765097;81;21133;-59
2021/01/08 10:05:26;;;;;;;8.33;4.67;;;;;;;7.51;85.39;100925.23;1767013;81;21173;-59
2021/01/08 10:07:54;;;;;;;8.33;4.75;;;;;;;7.57;85.36;100922.91;1767011;81;21058;-59
2021/01/08 10:10:35;;;;;;;7.50;4.85;;;;;;;7.62;84.70;100922.36;1766957;81;21285;-57
2021/01/08 10:13:05;;;;;;;9.10;5.30;;;;;;;7.67;84.43;100914.27;1766988;81;20944;-56
2021/01/08 10:15:35;;;;;;;9.28;5.17;;;;;;;7.69;84.22;100903.10;1766913;81;21078;-58
2021/01/08 10:18:32;;;;;;;8.60;4.90;;;;;;;7.69;83.64;100908.00;1766948;81;21060;-57
2021/01/08 10:21:07;;;;;;;8.75;5.00;;;;;;;7.65;83.05;100891.63;1764316;81;21173;-58
2021/01/08 10:23:39;;;;;;;8.23;4.45;;;;;;;7.60;82.69;100889.48;1764200;81;21135;-58
2021/01/08 10:26:17;;;;;;;9.40;4.78;;;;;;;7.55;82.40;100893.61;1763958;81;21486;-58
2021/01/08 10:28:55;;;;;;;6.67;4.50;;;;;;;7.47;82.43;100886.19;1764062;81;21137;-57
2021/01/08 10:31:23;;;;;;;7.97;4.28;;;;;;;7.43;82.75;100876.50;1763931;80;21070;-58
2021/01/08 10:33:52;;;;;;;8.80;4.67;;;;;;;7.40;82.51;100876.09;1786747;80;21058;-57
2021/01/08 10:36:20;;;;;;;11.90;5.33;;;;;;;7.35;82.45;100869.11;1786743;80;22324;-58
2021/01/08 10:38:47;;;;;;;12.07;5.20;;;;;;;7.30;82.49;100871.86;1755460;81;21184;-56
2021/01/08 10:41:16;;;;;;;11.05;4.87;;;;;;;7.28;82.76;100873.69;1755699;81;21074;-57
2021/01/08 10:43:45;;;;;;;14.53;5.85;;;;;;;7.26;82.95;100866.17;1755648;81;21204;-57
2021/01/08 10:46:14;;;;;;;10.65;5.03;;;;;;;7.27;83.40;100863.45;1755777;81;21112;-58
2021/01/08 10:48:43;;;;;;;11.08;5.37;;;;;;;7.29;83.70;100851.44;1755589;81;21373;-57
2021/01/08 10:51:10;;;;;;;9.73;5.83;;;;;;;7.29;83.61;100852.33;1755601;81;21105;-57
2021/01/08 10:53:38;;;;;;;12.20;6.40;;;;;;;7.21;83.50;100845.39;1755641;81;21144;-57
2021/01/08 10:56:05;;;;;;;12.40;6.40;;;;;;;7.18;84.23;100846.31;1755625;81;21054;-57
2021/01/08 10:58:36;;;;;;;15.35;6.92;;;;;;;7.23;84.64;100842.23;1755640;81;21185;-56
2021/01/08 11:01:04;;;;;;;12.37;6.60;;;;;;;7.31;85.37;100827.84;1755613;81;21743;-57
2021/01/08 11:03:32;;;;;;;13.40;6.30;;;;;;;7.41;85.76;100828.97;1755639;81;21069;-57
2021/01/08 11:05:59;;;;;;;11.78;6.60;;;;;;;7.50;85.63;100822.56;1755558;81;21006;-57
2021/01/08 11:08:27;;;;;;;11.63;7.08;;;;;;;7.56;85.77;100818.42;1755672;81;21184;-57
2021/01/08 11:10:55;;;;;;;13.08;7.28;;;;;;;7.62;85.76;100818.76;1755619;81;21056;-57
2021/01/08 11:13:22;;;;;;;10.20;6.05;;;;;;;7.67;85.92;100827.53;1755641;81;21380;-57
2021/01/08 11:15:50;;;;;;;10.58;6.22;;;;;;;7.71;85.72;100827.45;1755498;81;21140;-57
2021/01/08 11:18:18;;;;;;;8.23;5.47;;;;;;;7.73;85.28;100818.05;1755552;81;21195;-57
2021/01/08 11:20:48;;;;;;;9.95;5.78;;;;;;;7.74;84.54;100818.03;1751754;81;21065;-57
2021/01/08 11:23:16;;;;;;;8.05;5.17;;;;;;;7.74;83.97;100810.02;1749998;82;21057;-57
2021/01/08 11:25:44;;;;;;;10.88;5.40;;;;;;;7.71;83.48;100815.44;1749978;82;22378;-57
2021/01/08 11:28:12;;;;;;;8.50;5.17;;;;;;;7.67;82.93;100828.43;1749930;81;21184;-56
2021/01/08 11:30:39;;;;;;;9.88;5.92;;;;;;;7.56;82.55;100827.33;1749939;82;21172;-57
2021/01/08 11:33:07;;;;;;;10.05;6.17;;;;;;;7.45;82.50;100823.98;1750035;82;21172;-56
2021/01/08 11:35:37;;;;;;;10.53;5.78;;;;;;;7.28;82.44;100816.34;1750236;82;21569;-57
2021/01/08 11:38:05;;;;;;;9.85;6.05;;;;;;;7.10;82.74;100825.59;1769244;80;21697;-57
2021/01/08 11:40:33;;;;;;;10.45;5.72;;;;;;;6.93;83.22;100820.56;1756900;81;21058;-57
2021/01/08 11:43:02;;;;;;;12.43;6.12;;;;;;;6.76;83.45;100811.55;1770495;81;21087;-58
2021/01/08 11:45:30;;;;;;;8.38;5.17;;;;;;;6.60;84.07;100813.14;1756867;81;21105;-57